Time;durP1;ratioP1;P1;durP2;ratioP2;P2;SDS_P1;SDS_P2;PMS_P1;PMS_P2;Temp;Humidity;BMP_temperature;BMP_pressure;BME280_temperature;BME280_humidity;BME280_pressure;Samples;Min_cycle;Max_cycle;Signal;HPM_P1;HPM_P2
2022/12/06 00:00:41;;;;;;;15.23;6.20;;;;;;;;;;5036696;28;20049;-75
2022/12/06 00:03:07;;;;;;;21.33;5.72;;;;;;;;;;5053697;28;20509;-75
2022/12/06 00:05:33;;;;;;;19.00;6.40;;;;;;;;;;5048898;28;20093;-75
2022/12/06 00:08:00;;;;;;;15.27;5.85;;;;;;;;;;5033264;28;20049;-76
2022/12/06 00:10:26;;;;;;;12.90;5.70;;;;;;;;;;5052888;28;20048;-75
2022/12/06 00:12:52;;;;;;;15.32;6.05;;;;;;;;;;5025547;28;20049;-75
2022/12/06 00:15:18;;;;;;;15.82;5.70;;;;;;;;;;5049777;28;20411;-75
2022/12/06 00:17:44;;;;;;;11.60;5.30;;;;;;;;;;5047132;28;20068;-75
2022/12/06 00:20:10;;;;;;;11.18;5.13;;;;;;;;;;5053791;28;20051;-76
2022/12/06 00:22:37;;;;;;;13.57;5.20;;;;;;;;;;5036605;28;20049;-75
2022/12/06 00:25:03;;;;;;;14.23;4.72;;;;;;;;;;5054199;28;20491;-75
2022/12/06 00:27:29;;;;;;;15.73;5.78;;;;;;;;;;5053384;28;20510;-75
2022/12/06 00:29:55;;;;;;;16.20;5.82;;;;;;;;;;5054301;28;20406;-75
2022/12/06 00:32:21;;;;;;;12.95;5.68;;;;;;;;;;5052627;28;20114;-75
2022/12/06 00:34:47;;;;;;;17.10;5.88;;;;;;;;;;5036276;28;20045;-75
2022/12/06 00:37:13;;;;;;;16.48;5.40;;;;;;;;;;5053242;28;20045;-75
2022/12/06 00:39:39;;;;;;;16.30;5.10;;;;;;;;;;5036270;28;20045;-75
2022/12/06 00:42:05;;;;;;;13.23;5.03;;;;;;;;;;5053331;28;20068;-76
2022/12/06 00:44:31;;;;;;;14.50;5.90;;;;;;;;;;5035975;28;20051;-75
2022/12/06 00:46:57;;;;;;;17.65;5.32;;;;;;;;;;5036142;28;20395;-75
2022/12/06 00:49:23;;;;;;;11.63;4.78;;;;;;;;;;5053097;28;20053;-75
2022/12/06 00:51:50;;;;;;;11.38;4.88;;;;;;;;;;5053723;28;20041;-75
2022/12/06 00:54:16;;;;;;;12.55;5.03;;;;;;;;;;5052626;28;20037;-75
2022/12/06 00:56:42;;;;;;;15.52;4.47;;;;;;;;;;5018330;28;20051;-75
2022/12/06 00:59:08;;;;;;;10.65;4.43;;;;;;;;;;5053265;28;20063;-75
2022/12/06 01:01:34;;;;;;;12.98;4.63;;;;;;;;;;5035546;28;20067;-75
2022/12/06 01:04:02;;;;;;;13.02;4.85;;;;;;;;;;5034878;28;20542;-75
2022/12/06 01:06:30;;;;;;;14.48;5.05;;;;;;;;;;5052758;28;20534;-76
2022/12/06 01:08:57;;;;;;;11.35;4.75;;;;;;;;;;5053417;28;20245;-75
2022/12/06 01:11:23;;;;;;;13.50;4.45;;;;;;;;;;5053078;28;20355;-75
2022/12/06 01:13:50;;;;;;;11.63;4.50;;;;;;;;;;5035853;28;20391;-75
2022/12/06 01:16:18;;;;;;;12.55;4.75;;;;;;;;;;5053098;28;20052;-75
2022/12/06 01:18:45;;;;;;;12.30;4.35;;;;;;;;;;5034835;28;20480;-75
2022/12/06 01:21:13;;;;;;;13.77;4.45;;;;;;;;;;5052342;28;20051;-75
2022/12/06 01:23:39;;;;;;;15.60;4.82;;;;;;;;;;5052306;28;20045;-75
2022/12/06 01:26:06;;;;;;;13.07;4.07;;;;;;;;;;5052997;28;20049;-75
2022/12/06 01:28:32;;;;;;;10.43;4.00;;;;;;;;;;5035118;28;20049;-75
2022/12/06 01:30:58;;;;;;;11.00;4.07;;;;;;;;;;5035554;28;20045;-75
2022/12/06 01:33:25;;;;;;;13.63;4.45;;;;;;;;;;5051985;28;20057;-74
2022/12/06 01:35:51;;;;;;;13.20;5.75;;;;;;;;;;5053182;28;20399;-75
2022/12/06 01:38:17;;;;;;;17.30;5.75;;;;;;;;;;5052850;28;20052;-75
2022/12/06 01:40:45;;;;;;;11.63;5.00;;;;;;;;;;5034369;28;20053;-75
2022/12/06 01:43:29;;;;;;;15.25;5.68;;;;;;;;;;5052916;28;20040;-75
2022/12/06 01:45:56;;;;;;;13.25;5.57;;;;;;;;;;5031884;28;20045;-75
2022/12/06 01:48:24;;;;;;;15.70;4.88;;;;;;;;;;5034545;28;20071;-76
2022/12/06 01:50:51;;;;;;;19.00;5.32;;;;;;;;;;5051311;28;20045;-75
2022/12/06 01:53:18;;;;;;;17.63;5.00;;;;;;;;;;5052677;28;20053;-75
2022/12/06 01:55:45;;;;;;;14.10;5.07;;;;;;;;;;5052647;28;20525;-75
2022/12/06 01:58:16;;;;;;;14.20;5.00;;;;;;;;;;5051726;28;20115;-75
2022/12/06 02:00:43;;;;;;;17.55;4.82;;;;;;;;;;5051728;28;20091;-75
2022/12/06 02:03:12;;;;;;;13.15;4.90;;;;;;;;;;5052322;28;20044;-75
2022/12/06 02:05:38;;;;;;;19.65;5.47;;;;;;;;;;5052650;28;20045;-75
2022/12/06 02:08:04;;;;;;;14.00;4.72;;;;;;;;;;5054267;28;20116;-75
2022/12/06 02:10:30;;;;;;;11.45;4.35;;;;;;;;;;5021588;28;20049;-75
2022/12/06 02:12:57;;;;;;;12.00;4.63;;;;;;;;;;5022256;28;20053;-75
2022/12/06 02:15:33;;;;;;;13.93;4.68;;;;;;;;;;5054263;28;20048;-75
2022/12/06 02:18:06;;;;;;;12.93;4.65;;;;;;;;;;5038009;28;20053;-75
2022/12/06 02:20:34;;;;;;;14.07;4.80;;;;;;;;;;5055624;28;20048;-75
2022/12/06 02:23:26;;;;;;;12.85;5.45;;;;;;;;;;5035183;28;20072;-74
2022/12/06 02:26:11;;;;;;;17.08;5.22;;;;;;;;;;5050052;28;20045;-75
2022/12/06 02:28:43;;;;;;;13.85;5.65;;;;;;;;;;5031960;28;20410;-75
2022/12/06 02:31:33;;;;;;;14.57;5.60;;;;;;;;;;5051031;28;20409;-75
2022/12/06 02:34:01;;;;;;;15.95;8.45;;;;;;;;;;4979963;28;20097;-75
2022/12/06 02:36:45;;;;;;;19.25;8.27;;;;;;;;;;4994462;28;20060;-75
2022/12/06 02:39:29;;;;;;;18.52;6.82;;;;;;;;;;4994792;28;20055;-75
2022/12/06 02:42:00;;;;;;;17.95;6.60;;;;;;;;;;4992866;28;20080;-75
2022/12/06 02:44:26;;;;;;;;;;;;;;;;;;4995084;28;20101;-75
2022/12/06 02:46:53;;;;;;;14.55;6.47;;;;;;;;;;4994561;28;19968;-75
2022/12/06 02:49:20;;;;;;;14.00;6.30;;;;;;;;;;4993816;28;20100;-75
2022/12/06 02:51:47;;;;;;;15.73;6.60;;;;;;;;;;4994153;28;20138;-75
2022/12/06 02:54:13;;;;;;;15.18;6.65;;;;;;;;;;4993887;28;20082;-75
2022/12/06 02:56:39;;;;;;;14.27;6.00;;;;;;;;;;4978269;28;20058;-75
2022/12/06 02:59:05;;;;;;;15.32;5.90;;;;;;;;;;4993230;28;20053;-75
2022/12/06 03:01:34;;;;;;;10.88;4.78;;;;;;;;;;4993751;28;20046;-74
2022/12/06 03:04:18;;;;;;;15.52;4.68;;;;;;;;;;4976979;28;20062;-75
2022/12/06 03:06:44;;;;;;;10.35;4.20;;;;;;;;;;4986186;28;20049;-75
2022/12/06 03:09:22;;;;;;;15.07;4.50;;;;;;;;;;4980169;28;20047;-75
2022/12/06 03:12:03;;;;;;;11.43;4.13;;;;;;;;;;5039938;28;20388;-75
2022/12/06 03:14:34;;;;;;;10.80;4.13;;;;;;;;;;5054469;28;20041;-75
2022/12/06 03:17:16;;;;;;;12.27;4.22;;;;;;;;;;5054813;28;20048;-75
2022/12/06 03:19:43;;;;;;;10.68;4.50;;;;;;;;;;5054213;28;20102;-75
2022/12/06 03:22:20;;;;;;;10.23;4.38;;;;;;;;;;5053753;28;20041;-75
2022/12/06 03:24:46;;;;;;;8.77;3.95;;;;;;;;;;5036239;28;20048;-75
2022/12/06 03:27:15;;;;;;;12.30;3.53;;;;;;;;;;5036305;28;20094;-75
2022/12/06 03:29:45;;;;;;;10.48;3.83;;;;;;;;;;5053808;28;20128;-74
2022/12/06 03:32:13;;;;;;;13.85;4.28;;;;;;;;;;5054329;28;20391;-75
2022/12/06 03:34:42;;;;;;;9.68;3.70;;;;;;;;;;5052009;28;20041;-74
2022/12/06 03:37:11;;;;;;;12.25;3.97;;;;;;;;;;5052959;28;20090;-75
2022/12/06 03:39:43;;;;;;;10.55;3.90;;;;;;;;;;5053845;28;20060;-75
2022/12/06 03:42:10;;;;;;;8.23;3.58;;;;;;;;;;5052944;28;20045;-75
2022/12/06 03:44:36;;;;;;;9.13;4.05;;;;;;;;;;5034148;28;20530;-75
2022/12/06 03:47:07;;;;;;;14.02;3.85;;;;;;;;;;5019801;28;20053;-75
2022/12/06 03:49:45;;;;;;;9.25;3.75;;;;;;;;;;5035524;28;20142;-75
2022/12/06 03:52:11;;;;;;;12.43;3.70;;;;;;;;;;5054301;28;20075;-75
2022/12/06 03:54:38;;;;;;;8.98;3.70;;;;;;;;;;5036475;28;20041;-75
2022/12/06 03:57:05;;;;;;;12.23;3.92;;;;;;;;;;5051839;28;20564;-75
2022/12/06 03:59:30;;;;;;;15.13;3.67;;;;;;;;;;5054322;28;20064;-75
2022/12/06 04:01:58;;;;;;;10.27;3.88;;;;;;;;;;5053508;28;20045;-75
2022/12/06 04:04:24;;;;;;;10.07;3.83;;;;;;;;;;5035238;28;20055;-75
2022/12/06 04:06:50;;;;;;;6.95;3.45;;;;;;;;;;5020185;28;20503;-75
2022/12/06 04:12:01;;;;;;;11.48;4.20;;;;;;;;;;5053492;28;20512;-76
2022/12/06 04:14:31;;;;;;;8.55;3.65;;;;;;;;;;5035724;28;20094;-75
2022/12/06 04:19:44;;;;;;;9.00;3.40;;;;;;;;;;5054233;28;20045;-75
2022/12/06 04:24:55;;;;;;;9.38;3.47;;;;;;;;;;5054381;28;20052;-75
2022/12/06 04:41:05;;;;;;;6.15;2.25;;;;;;;;;;5053009;28;20044;-75
2022/12/06 04:43:40;;;;;;;7.53;2.60;;;;;;;;;;5036091;28;20051;-75
2022/12/06 04:46:07;;;;;;;6.55;2.35;;;;;;;;;;5053987;28;20174;-75
2022/12/06 04:48:33;;;;;;;8.70;2.72;;;;;;;;;;5035140;28;20472;-75
2022/12/06 04:50:59;;;;;;;7.53;2.35;;;;;;;;;;5035496;28;20102;-75
2022/12/06 04:53:25;;;;;;;6.65;2.28;;;;;;;;;;5035994;28;20102;-75
2022/12/06 04:55:51;;;;;;;5.85;2.30;;;;;;;;;;5033579;28;20047;-75
2022/12/06 04:58:17;;;;;;;7.50;2.45;;;;;;;;;;5051715;28;20064;-76
2022/12/06 05:00:44;;;;;;;6.40;2.35;;;;;;;;;;5053554;28;20045;-75
2022/12/06 05:03:10;;;;;;;8.00;2.50;;;;;;;;;;5053497;28;20063;-75
2022/12/06 05:05:37;;;;;;;6.90;2.40;;;;;;;;;;5034710;28;20044;-75
2022/12/06 05:08:03;;;;;;;8.07;2.65;;;;;;;;;;5052246;28;20049;-75
2022/12/06 05:10:29;;;;;;;8.85;2.50;;;;;;;;;;5035494;28;20057;-75
2022/12/06 05:12:55;;;;;;;6.35;2.38;;;;;;;;;;5053393;28;20045;-75
2022/12/06 05:15:21;;;;;;;6.88;2.53;;;;;;;;;;5035675;28;20056;-75
2022/12/06 05:17:47;;;;;;;12.63;2.55;;;;;;;;;;5053293;28;20099;-75
2022/12/06 05:20:13;;;;;;;6.50;2.28;;;;;;;;;;5053351;28;20111;-76
2022/12/06 05:22:40;;;;;;;6.40;2.30;;;;;;;;;;5052005;28;20380;-75
2022/12/06 05:25:06;;;;;;;6.40;2.25;;;;;;;;;;5052904;28;20041;-75
2022/12/06 05:27:32;;;;;;;5.68;2.30;;;;;;;;;;5047380;28;20076;-75
2022/12/06 05:29:58;;;;;;;7.60;2.72;;;;;;;;;;5042978;28;20048;-75
2022/12/06 05:32:24;;;;;;;6.05;2.40;;;;;;;;;;5044421;28;20037;-75
2022/12/06 05:34:50;;;;;;;8.77;2.67;;;;;;;;;;5046336;28;20041;-75
2022/12/06 05:37:16;;;;;;;6.88;2.85;;;;;;;;;;5033647;28;20107;-75
2022/12/06 05:39:42;;;;;;;8.95;3.00;;;;;;;;;;5034532;28;20056;-75
2022/12/06 05:42:08;;;;;;;8.85;3.35;;;;;;;;;;5052679;28;20045;-74
2022/12/06 05:44:34;;;;;;;8.90;3.15;;;;;;;;;;5035298;28;20060;-75
2022/12/06 05:47:00;;;;;;;11.57;3.38;;;;;;;;;;5033725;28;20052;-75
2022/12/06 05:49:27;;;;;;;10.95;3.50;;;;;;;;;;5034059;28;20049;-75
2022/12/06 05:51:53;;;;;;;8.85;3.30;;;;;;;;;;5052526;28;20049;-75
2022/12/06 05:54:20;;;;;;;8.85;3.00;;;;;;;;;;5052659;28;20063;-75
2022/12/06 05:56:46;;;;;;;7.82;3.22;;;;;;;;;;5051958;28;20533;-74
2022/12/06 05:59:12;;;;;;;11.13;3.15;;;;;;;;;;5034419;28;20053;-76
2022/12/06 06:01:38;;;;;;;5.88;2.65;;;;;;;;;;5052746;28;20049;-75
2022/12/06 06:04:04;;;;;;;6.75;2.90;;;;;;;;;;5052855;28;20167;-75
2022/12/06 06:06:30;;;;;;;7.63;3.00;;;;;;;;;;5051742;28;20155;-75
2022/12/06 06:08:56;;;;;;;7.65;2.83;;;;;;;;;;5049403;28;20045;-75
2022/12/06 06:11:22;;;;;;;7.93;2.80;;;;;;;;;;5051001;28;20090;-74
2022/12/06 06:13:48;;;;;;;11.30;3.17;;;;;;;;;;5032813;28;20052;-75
2022/12/06 06:16:14;;;;;;;8.82;3.03;;;;;;;;;;5034105;28;20052;-75
2022/12/06 06:18:40;;;;;;;9.55;2.88;;;;;;;;;;5033477;28;20053;-75
2022/12/06 06:21:06;;;;;;;6.80;2.70;;;;;;;;;;5050398;28;20095;-74
2022/12/06 06:23:32;;;;;;;6.85;2.70;;;;;;;;;;5051116;28;20111;-75
2022/12/06 06:25:58;;;;;;;9.82;2.60;;;;;;;;;;5034551;28;20041;-75
2022/12/06 06:28:24;;;;;;;11.88;3.38;;;;;;;;;;5034489;28;20487;-75
2022/12/06 06:30:51;;;;;;;10.25;2.78;;;;;;;;;;5033903;28;20045;-75
2022/12/06 06:33:17;;;;;;;8.73;3.13;;;;;;;;;;5046193;28;20041;-75
2022/12/06 06:35:43;;;;;;;8.48;2.60;;;;;;;;;;5044503;28;20132;-75
2022/12/06 06:38:09;;;;;;;8.98;3.20;;;;;;;;;;5027840;28;20041;-75
2022/12/06 06:40:35;;;;;;;10.10;3.20;;;;;;;;;;5052197;28;20048;-75
2022/12/06 06:43:16;;;;;;;11.23;3.35;;;;;;;;;;5034546;28;20049;-75
2022/12/06 06:46:03;;;;;;;8.10;3.17;;;;;;;;;;5032701;28;20053;-76
2022/12/06 06:48:30;;;;;;;7.53;2.97;;;;;;;;;;5045669;28;20048;-75
2022/12/06 06:51:01;;;;;;;9.45;3.28;;;;;;;;;;5052449;28;20045;-74
2022/12/06 06:53:27;;;;;;;7.32;3.15;;;;;;;;;;5053812;28;20049;-75
2022/12/06 06:55:53;;;;;;;8.75;3.45;;;;;;;;;;5055857;28;20111;-75
2022/12/06 06:58:19;;;;;;;9.77;3.50;;;;;;;;;;5055471;28;20060;-75
2022/12/06 07:00:45;;;;;;;10.75;3.45;;;;;;;;;;5038109;28;20067;-75
2022/12/06 07:03:15;;;;;;;9.25;3.25;;;;;;;;;;5034367;28;20049;-74
2022/12/06 07:05:42;;;;;;;8.65;3.10;;;;;;;;;;5037244;28;20049;-75
2022/12/06 07:08:08;;;;;;;6.85;3.40;;;;;;;;;;5054775;28;20049;-75
2022/12/06 07:10:34;;;;;;;8.85;3.42;;;;;;;;;;5055445;28;20041;-75
2022/12/06 07:13:00;;;;;;;9.30;3.47;;;;;;;;;;5037119;28;20044;-75
2022/12/06 07:15:26;;;;;;;8.13;3.15;;;;;;;;;;5055618;28;20049;-75
2022/12/06 07:17:52;;;;;;;6.97;2.90;;;;;;;;;;5055368;28;20044;-76
2022/12/06 07:20:19;;;;;;;8.93;3.38;;;;;;;;;;5036482;28;20052;-75
2022/12/06 07:22:45;;;;;;;11.93;3.58;;;;;;;;;;5054636;28;20049;-74
2022/12/06 07:25:12;;;;;;;8.73;3.25;;;;;;;;;;5052669;28;20229;-75
2022/12/06 07:27:38;;;;;;;6.55;3.17;;;;;;;;;;5050373;28;20553;-75
2022/12/06 07:30:05;;;;;;;7.60;3.42;;;;;;;;;;5035545;28;20041;-75
2022/12/06 07:32:35;;;;;;;8.80;3.58;;;;;;;;;;5032609;28;20049;-75
2022/12/06 07:35:01;;;;;;;11.13;3.45;;;;;;;;;;5049651;28;20075;-75
2022/12/06 07:37:27;;;;;;;7.05;3.30;;;;;;;;;;5050976;28;20041;-75
2022/12/06 07:39:54;;;;;;;7.90;3.03;;;;;;;;;;5052470;28;20084;-75
2022/12/06 07:45:07;;;;;;;8.98;3.10;;;;;;;;;;5051857;28;20069;-75
2022/12/06 07:47:37;;;;;;;10.40;3.20;;;;;;;;;;5050489;28;20094;-76
2022/12/06 07:50:04;;;;;;;10.07;3.33;;;;;;;;;;5047908;28;20053;-75
2022/12/06 07:52:33;;;;;;;8.70;3.40;;;;;;;;;;5034714;28;20053;-76
2022/12/06 07:55:00;;;;;;;6.80;3.20;;;;;;;;;;5044594;28;20045;-76
2022/12/06 07:57:26;;;;;;;8.20;3.30;;;;;;;;;;5052425;28;20057;-75
2022/12/06 07:59:52;;;;;;;12.38;3.30;;;;;;;;;;5053058;28;20061;-76
2022/12/06 08:02:19;;;;;;;11.02;3.45;;;;;;;;;;5051250;28;20112;-76
2022/12/06 08:04:45;;;;;;;7.63;3.03;;;;;;;;;;5044313;28;20487;-76
2022/12/06 08:07:11;;;;;;;6.85;3.03;;;;;;;;;;5045414;28;20398;-75
2022/12/06 08:09:38;;;;;;;9.60;3.42;;;;;;;;;;5048829;28;20041;-75
2022/12/06 08:12:04;;;;;;;7.10;3.50;;;;;;;;;;5050126;28;20052;-76
2022/12/06 08:14:30;;;;;;;7.97;3.03;;;;;;;;;;5052929;28;20049;-76
2022/12/06 08:16:56;;;;;;;8.32;3.55;;;;;;;;;;5035363;28;20037;-76
2022/12/06 08:19:22;;;;;;;8.00;3.83;;;;;;;;;;5050115;28;20041;-75
2022/12/06 08:21:48;;;;;;;7.30;3.15;;;;;;;;;;5048106;28;20577;-76
2022/12/06 08:24:14;;;;;;;10.85;3.50;;;;;;;;;;5051806;28;20064;-76
2022/12/06 08:26:40;;;;;;;7.45;3.20;;;;;;;;;;5052380;28;20384;-76
2022/12/06 08:29:06;;;;;;;6.88;3.30;;;;;;;;;;5049889;28;20098;-76
2022/12/06 08:31:33;;;;;;;7.88;3.65;;;;;;;;;;5052765;28;20033;-76
2022/12/06 08:33:59;;;;;;;8.73;4.00;;;;;;;;;;5053376;28;20059;-76
2022/12/06 08:36:27;;;;;;;8.80;3.63;;;;;;;;;;5053317;28;20037;-76
2022/12/06 08:38:54;;;;;;;8.05;3.30;;;;;;;;;;5052962;28;20115;-76
2022/12/06 08:44:07;;;;;;;6.68;3.17;;;;;;;;;;5039160;28;20057;-76
2022/12/06 08:46:34;;;;;;;10.60;3.85;;;;;;;;;;5049026;28;20457;-76
2022/12/06 08:49:00;;;;;;;12.45;4.72;;;;;;;;;;5052169;28;20103;-76
2022/12/06 08:51:27;;;;;;;10.18;4.32;;;;;;;;;;5050541;28;20049;-76
2022/12/06 08:53:54;;;;;;;9.75;4.68;;;;;;;;;;5050270;28;20045;-76
2022/12/06 08:56:20;;;;;;;9.27;4.32;;;;;;;;;;5035584;28;20408;-76
2022/12/06 08:58:46;;;;;;;7.30;3.70;;;;;;;;;;5033696;28;20068;-76
2022/12/06 09:01:14;;;;;;;9.23;4.30;;;;;;;;;;5046837;28;20075;-76
2022/12/06 09:03:40;;;;;;;10.20;4.47;;;;;;;;;;5050507;28;20045;-76
2022/12/06 09:06:07;;;;;;;11.48;4.32;;;;;;;;;;5034406;28;20049;-76
2022/12/06 09:08:33;;;;;;;9.68;3.97;;;;;;;;;;5052709;28;20059;-76
2022/12/06 09:10:59;;;;;;;9.18;4.65;;;;;;;;;;5051126;28;20048;-76
2022/12/06 09:13:25;;;;;;;9.68;4.13;;;;;;;;;;5046422;28;20455;-76
2022/12/06 09:15:51;;;;;;;9.05;4.47;;;;;;;;;;5039667;28;20443;-76
2022/12/06 09:18:17;;;;;;;7.95;4.32;;;;;;;;;;5041566;28;20398;-76
2022/12/06 09:20:43;;;;;;;8.93;4.97;;;;;;;;;;5047538;28;20040;-76
2022/12/06 09:23:09;;;;;;;10.40;4.63;;;;;;;;;;5049876;28;20048;-76
2022/12/06 09:25:35;;;;;;;10.95;5.03;;;;;;;;;;5047738;28;20048;-76
2022/12/06 09:28:02;;;;;;;8.57;4.90;;;;;;;;;;5051831;28;20044;-76
2022/12/06 09:30:28;;;;;;;8.88;4.78;;;;;;;;;;5043923;28;20470;-76
2022/12/06 09:32:54;;;;;;;11.20;5.03;;;;;;;;;;5050391;28;20049;-75
2022/12/06 09:35:20;;;;;;;9.00;5.25;;;;;;;;;;5050481;28;20134;-76
2022/12/06 09:37:47;;;;;;;11.70;4.90;;;;;;;;;;5050111;28;20044;-76
2022/12/06 09:40:19;;;;;;;9.63;4.45;;;;;;;;;;5046800;28;20037;-76
2022/12/06 09:42:57;;;;;;;9.05;4.80;;;;;;;;;;5047972;28;20117;-76
2022/12/06 09:45:38;;;;;;;9.65;4.22;;;;;;;;;;5051252;28;20479;-76
2022/12/06 09:48:11;;;;;;;10.13;4.85;;;;;;;;;;5049524;28;20045;-77
2022/12/06 09:50:43;;;;;;;13.50;5.05;;;;;;;;;;5038947;28;20033;-79
2022/12/06 09:53:22;;;;;;;8.85;4.60;;;;;;;;;;5051719;28;20053;-76
2022/12/06 09:55:48;;;;;;;10.45;4.50;;;;;;;;;;5050123;28;20044;-77
2022/12/06 09:58:14;;;;;;;9.40;4.13;;;;;;;;;;5033947;28;20049;-73
2022/12/06 10:00:44;;;;;;;7.78;4.13;;;;;;;;;;5051968;28;20137;-72
2022/12/06 10:03:10;;;;;;;9.07;4.15;;;;;;;;;;5042508;28;20041;-71
2022/12/06 10:05:40;;;;;;;10.48;4.10;;;;;;;;;;5051192;28;20065;-73
2022/12/06 10:08:26;;;;;;;10.15;3.75;;;;;;;;;;5043351;28;20053;-72
2022/12/06 10:11:12;;;;;;;9.25;3.70;;;;;;;;;;5049248;28;20052;-72
2022/12/06 10:13:44;;;;;;;8.27;3.50;;;;;;;;;;5032041;28;20046;-72
2022/12/06 10:16:10;;;;;;;8.45;3.60;;;;;;;;;;5035660;28;20056;-72
2022/12/06 10:18:36;;;;;;;14.45;3.65;;;;;;;;;;5037184;28;20040;-72
2022/12/06 10:21:05;;;;;;;10.13;3.72;;;;;;;;;;5050170;28;20045;-72
2022/12/06 10:23:50;;;;;;;8.82;3.53;;;;;;;;;;5050544;28;20048;-73
2022/12/06 10:26:37;;;;;;;8.05;3.30;;;;;;;;;;5050633;28;20510;-73
2022/12/06 10:29:12;;;;;;;8.63;3.17;;;;;;;;;;5053762;28;20052;-73
2022/12/06 10:31:57;;;;;;;9.68;3.35;;;;;;;;;;5036374;28;20056;-73
2022/12/06 10:34:32;;;;;;;8.05;3.33;;;;;;;;;;5054643;28;20056;-73
2022/12/06 10:36:58;;;;;;;10.32;3.70;;;;;;;;;;5055659;28;20037;-73
2022/12/06 10:39:32;;;;;;;8.23;3.72;;;;;;;;;;5054766;28;20110;-73
2022/12/06 10:42:05;;;;;;;7.32;3.22;;;;;;;;;;5054544;28;20106;-73
2022/12/06 10:44:44;;;;;;;8.13;3.53;;;;;;;;;;5054503;28;20059;-73
2022/12/06 10:47:14;;;;;;;6.88;3.33;;;;;;;;;;5054904;28;20051;-73
2022/12/06 10:49:59;;;;;;;7.47;2.90;;;;;;;;;;5055782;28;20060;-73
2022/12/06 10:52:36;;;;;;;6.72;2.65;;;;;;;;;;5055966;28;20094;-73
2022/12/06 10:55:02;;;;;;;6.72;2.95;;;;;;;;;;5054418;28;20089;-73
2022/12/06 10:57:31;;;;;;;6.38;2.50;;;;;;;;;;5055222;28;20067;-73
2022/12/06 11:00:00;;;;;;;6.65;2.95;;;;;;;;;;5053622;28;20515;-73
2022/12/06 11:02:30;;;;;;;9.20;3.13;;;;;;;;;;5054268;28;20488;-73
2022/12/06 11:05:00;;;;;;;10.00;3.08;;;;;;;;;;5051906;28;20048;-73
2022/12/06 11:07:31;;;;;;;5.93;2.60;;;;;;;;;;5054918;28;20071;-72
2022/12/06 11:09:57;;;;;;;7.32;3.10;;;;;;;;;;5054198;28;20457;-72
2022/12/06 11:12:26;;;;;;;6.95;2.80;;;;;;;;;;5055044;28;20037;-72
2022/12/06 11:14:56;;;;;;;9.55;2.90;;;;;;;;;;5053616;28;20102;-74
2022/12/06 11:17:27;;;;;;;5.65;2.40;;;;;;;;;;5054948;28;20102;-72
2022/12/06 11:19:58;;;;;;;7.57;2.47;;;;;;;;;;5053009;28;20094;-72
2022/12/06 11:22:42;;;;;;;7.82;2.55;;;;;;;;;;5054844;28;20120;-72
2022/12/06 11:25:28;;;;;;;7.38;2.40;;;;;;;;;;5053102;28;20128;-72
2022/12/06 11:28:08;;;;;;;6.47;2.20;;;;;;;;;;5054482;28;20522;-72
2022/12/06 11:30:34;;;;;;;8.40;2.17;;;;;;;;;;5054515;28;20560;-72
2022/12/06 11:33:01;;;;;;;6.63;2.00;;;;;;;;;;5053803;28;20067;-72
2022/12/06 11:35:28;;;;;;;6.30;2.40;;;;;;;;;;5052849;28;20052;-72
2022/12/06 11:38:04;;;;;;;9.85;2.20;;;;;;;;;;5054252;28;20037;-72
2022/12/06 11:40:32;;;;;;;5.60;2.20;;;;;;;;;;5054168;28;20490;-72
2022/12/06 11:43:00;;;;;;;5.70;2.10;;;;;;;;;;5053789;28;20041;-72
2022/12/06 11:45:27;;;;;;;6.10;2.40;;;;;;;;;;5047804;28;20037;-72
2022/12/06 11:47:54;;;;;;;6.32;2.50;;;;;;;;;;5036690;28;20515;-72
2022/12/06 11:50:20;;;;;;;7.35;2.10;;;;;;;;;;5052024;28;20041;-72
2022/12/06 11:52:56;;;;;;;6.40;2.30;;;;;;;;;;5053565;28;20102;-72
2022/12/06 11:55:34;;;;;;;7.50;2.38;;;;;;;;;;5054019;28;20056;-72
2022/12/06 11:58:02;;;;;;;7.57;2.55;;;;;;;;;;5048515;28;20042;-71
2022/12/06 12:00:29;;;;;;;7.90;2.65;;;;;;;;;;5052815;28;20144;-73
2022/12/06 12:02:56;;;;;;;7.93;2.33;;;;;;;;;;5050574;28;20434;-73
2022/12/06 12:05:37;;;;;;;7.25;2.72;;;;;;;;;;5052372;28;20482;-73
2022/12/06 12:08:17;;;;;;;9.52;2.60;;;;;;;;;;5052013;28;20086;-73
2022/12/06 12:10:44;;;;;;;9.45;2.70;;;;;;;;;;5034574;28;20049;-72
2022/12/06 12:15:56;;;;;;;7.30;3.00;;;;;;;;;;5034923;28;20056;-71
2022/12/06 12:18:25;;;;;;;14.02;3.45;;;;;;;;;;5052265;28;20167;-74
2022/12/06 12:20:52;;;;;;;6.90;2.97;;;;;;;;;;5051399;28;20148;-71
2022/12/06 12:23:23;;;;;;;12.43;2.63;;;;;;;;;;5053304;28;20045;-72
2022/12/06 12:26:00;;;;;;;12.57;3.50;;;;;;;;;;5049415;28;20051;-72
2022/12/06 12:28:27;;;;;;;7.50;2.47;;;;;;;;;;5053194;28;20191;-71
2022/12/06 12:30:55;;;;;;;9.38;2.50;;;;;;;;;;5052886;28;20120;-71
2022/12/06 12:33:25;;;;;;;11.18;2.40;;;;;;;;;;5033970;28;20227;-71
2022/12/06 12:35:56;;;;;;;7.18;2.30;;;;;;;;;;5015771;28;20049;-74
2022/12/06 12:38:25;;;;;;;15.35;3.17;;;;;;;;;;5049337;28;20113;-73
2022/12/06 12:40:56;;;;;;;6.05;2.40;;;;;;;;;;5017890;28;20486;-72
2022/12/06 12:43:24;;;;;;;22.52;3.25;;;;;;;;;;5051895;28;20384;-74
2022/12/06 12:46:02;;;;;;;9.95;2.78;;;;;;;;;;5034313;28;20041;-73
2022/12/06 12:48:28;;;;;;;20.88;3.38;;;;;;;;;;5051569;28;20043;-72
2022/12/06 12:50:55;;;;;;;6.93;2.03;;;;;;;;;;5043700;28;20045;-71
2022/12/06 12:53:38;;;;;;;9.10;2.58;;;;;;;;;;5047779;28;20041;-72
2022/12/06 12:56:05;;;;;;;5.63;2.22;;;;;;;;;;5049670;28;20045;-72
2022/12/06 12:58:31;;;;;;;9.10;2.47;;;;;;;;;;5050417;28;20064;-73
2022/12/06 13:01:01;;;;;;;7.93;2.38;;;;;;;;;;5048315;28;20048;-72
2022/12/06 13:03:27;;;;;;;17.23;3.20;;;;;;;;;;5050922;28;20045;-72
2022/12/06 13:05:53;;;;;;;7.75;2.45;;;;;;;;;;5040269;28;20392;-71
2022/12/06 13:08:23;;;;;;;9.70;2.55;;;;;;;;;;5046348;28;20521;-71
2022/12/06 13:10:52;;;;;;;7.07;2.45;;;;;;;;;;5052463;28;20488;-72
2022/12/06 13:13:20;;;;;;;13.15;2.60;;;;;;;;;;5051331;28;20457;-72
2022/12/06 13:15:47;;;;;;;12.38;2.45;;;;;;;;;;5051075;28;20041;-74
2022/12/06 13:18:13;;;;;;;9.38;2.38;;;;;;;;;;5052362;28;20055;-74
2022/12/06 13:20:39;;;;;;;11.15;2.60;;;;;;;;;;5051387;28;20059;-74
2022/12/06 13:23:18;;;;;;;17.13;2.80;;;;;;;;;;5051058;28;20056;-74
2022/12/06 13:25:47;;;;;;;5.45;2.10;;;;;;;;;;5049499;28;20064;-75
2022/12/06 13:28:22;;;;;;;7.57;2.58;;;;;;;;;;5034214;28;20048;-72
2022/12/06 13:30:50;;;;;;;11.88;2.63;;;;;;;;;;5050280;28;20049;-76
2022/12/06 13:33:22;;;;;;;10.05;2.53;;;;;;;;;;5050257;28;20053;-75
2022/12/06 13:35:55;;;;;;;18.30;3.55;;;;;;;;;;5051915;28;20403;-74
2022/12/06 13:38:24;;;;;;;13.48;2.40;;;;;;;;;;5050928;28;20064;-73
2022/12/06 13:40:51;;;;;;;9.48;3.97;;;;;;;;;;5051511;28;20546;-74
2022/12/06 13:43:38;;;;;;;9.25;2.70;;;;;;;;;;5047179;28;20411;-73
2022/12/06 13:46:06;;;;;;;8.63;2.53;;;;;;;;;;5032702;28;20419;-74
2022/12/06 13:48:32;;;;;;;8.38;2.47;;;;;;;;;;5051781;28;20057;-72
2022/12/06 13:51:01;;;;;;;9.98;2.70;;;;;;;;;;5048432;28;20056;-72
2022/12/06 13:53:32;;;;;;;7.75;2.80;;;;;;;;;;5050453;28;20041;-73
2022/12/06 13:56:18;;;;;;;12.80;3.30;;;;;;;;;;5046769;28;20049;-73
2022/12/06 13:58:55;;;;;;;22.98;3.97;;;;;;;;;;5041973;28;20048;-73
2022/12/06 14:01:36;;;;;;;6.45;2.65;;;;;;;;;;5050090;28;20049;-73
2022/12/06 14:04:07;;;;;;;8.70;3.08;;;;;;;;;;5038149;28;20120;-73
2022/12/06 14:06:44;;;;;;;9.27;3.00;;;;;;;;;;5032760;28;20141;-73
2022/12/06 14:09:11;;;;;;;8.73;3.60;;;;;;;;;;5053221;28;20040;-73
2022/12/06 14:11:38;;;;;;;12.88;3.40;;;;;;;;;;5055147;28;20041;-73
2022/12/06 14:14:07;;;;;;;10.80;2.80;;;;;;;;;;5051793;28;20037;-73
2022/12/06 14:16:37;;;;;;;12.05;2.53;;;;;;;;;;5046677;28;20110;-73
2022/12/06 14:19:11;;;;;;;9.20;3.17;;;;;;;;;;5054291;28;20403;-73
2022/12/06 14:21:40;;;;;;;14.80;2.63;;;;;;;;;;5055300;28;20421;-73
2022/12/06 14:24:06;;;;;;;14.90;4.32;;;;;;;;;;5021198;28;20041;-73
2022/12/06 14:26:33;;;;;;;8.25;3.00;;;;;;;;;;5035400;28;20037;-73
2022/12/06 14:29:00;;;;;;;9.65;2.67;;;;;;;;;;5055512;28;20491;-73
2022/12/06 14:31:28;;;;;;;11.88;2.92;;;;;;;;;;5052893;28;20037;-73
2022/12/06 14:33:55;;;;;;;6.45;2.45;;;;;;;;;;5053271;28;20036;-73
2022/12/06 14:36:23;;;;;;;15.23;3.15;;;;;;;;;;5055477;28;20044;-73
2022/12/06 14:38:51;;;;;;;9.43;2.55;;;;;;;;;;5055751;28;20049;-73
2022/12/06 14:44:15;;;;;;;14.30;4.00;;;;;;;;;;5054301;28;20052;-73
2022/12/06 14:46:43;;;;;;;12.38;8.00;;;;;;;;;;5047955;28;20091;-71
2022/12/06 14:51:57;;;;;;;9.38;3.45;;;;;;;;;;5054234;28;20044;-72
2022/12/06 14:54:26;;;;;;;7.32;3.40;;;;;;;;;;5054373;28;20135;-72
2022/12/06 14:56:52;;;;;;;7.40;3.20;;;;;;;;;;5053957;28;20048;-72
2022/12/06 14:59:20;;;;;;;7.25;2.72;;;;;;;;;;5053586;28;20387;-72
2022/12/06 15:01:47;;;;;;;9.35;3.20;;;;;;;;;;5051040;28;20084;-72
2022/12/06 15:04:24;;;;;;;8.40;3.20;;;;;;;;;;5035068;28;20443;-71
2022/12/06 15:06:51;;;;;;;7.07;2.47;;;;;;;;;;5052545;28;20517;-72
2022/12/06 15:09:20;;;;;;;6.07;2.33;;;;;;;;;;5035622;28;20049;-72
2022/12/06 15:14:34;;;;;;;10.63;3.00;;;;;;;;;;5050361;28;20049;-72
2022/12/06 15:17:05;;;;;;;14.52;3.28;;;;;;;;;;5038222;28;20045;-72
2022/12/06 15:19:36;;;;;;;10.38;2.65;;;;;;;;;;5052016;28;20073;-72
2022/12/06 15:22:03;;;;;;;6.15;2.63;;;;;;;;;;5055177;28;20045;-72
2022/12/06 15:24:29;;;;;;;8.85;2.80;;;;;;;;;;5053854;28;20041;-72
2022/12/06 15:26:56;;;;;;;7.53;2.65;;;;;;;;;;5052843;28;20459;-72